createdAt,value
2022-10-24T00:00:48.062Z,14.86
2022-10-24T00:03:16.471Z,14.88
2022-10-24T00:05:45.900Z,14.89
2022-10-24T00:08:13.776Z,14.90
2022-10-24T00:10:42.338Z,14.88
2022-10-24T00:13:11.762Z,14.91
2022-10-24T00:15:39.890Z,14.94
2022-10-24T00:18:07.525Z,14.94
2022-10-24T00:20:37.056Z,14.94
2022-10-24T00:23:05.201Z,14.92
2022-10-24T00:25:32.892Z,14.95
2022-10-24T00:28:00.621Z,14.96
2022-10-24T00:30:29.992Z,14.96
2022-10-24T00:32:57.609Z,14.98
2022-10-24T00:35:28.137Z,14.99
2022-10-24T00:37:55.776Z,14.99
2022-10-24T00:40:23.553Z,15.02
2022-10-24T00:42:51.402Z,15.03
2022-10-24T00:45:40.952Z,15.04
2022-10-24T00:48:17.093Z,15.05
2022-10-24T00:50:46.365Z,15.07
2022-10-24T00:53:15.581Z,15.09
2022-10-24T00:55:44.679Z,15.07
2022-10-24T00:58:13.342Z,15.04
2022-10-24T01:00:42.410Z,15.03
2022-10-24T01:03:11.766Z,15.03
2022-10-24T01:05:51.073Z,14.99
2022-10-24T01:08:29.773Z,14.98
2022-10-24T01:11:07.668Z,14.97
2022-10-24T01:13:44.293Z,14.99
2022-10-24T01:16:16.797Z,15.00
2022-10-24T01:18:49.763Z,14.99
2022-10-24T01:21:29.645Z,14.93
2022-10-24T01:24:33.380Z,14.83
2022-10-24T01:27:29.260Z,14.81
2022-10-24T01:30:05.904Z,14.82
2022-10-24T01:32:41.083Z,14.83
2022-10-24T01:35:21.678Z,14.83
2022-10-24T01:37:55.759Z,14.85
2022-10-24T01:40:28.401Z,14.85
2022-10-24T01:43:00.869Z,14.85
2022-10-24T01:45:34.128Z,14.85
2022-10-24T01:48:06.894Z,14.83
2022-10-24T01:50:38.653Z,14.87
2022-10-24T01:53:07.333Z,14.88
2022-10-24T01:55:35.265Z,14.89
2022-10-24T01:58:02.947Z,14.86
2022-10-24T02:00:32.158Z,14.84
2022-10-24T02:03:02.886Z,14.83
2022-10-24T02:05:35.270Z,14.80
2022-10-24T02:08:07.048Z,14.80
2022-10-24T02:10:41.443Z,14.82
2022-10-24T02:13:14.754Z,14.78
2022-10-24T02:15:49.781Z,14.78
2022-10-24T02:18:17.740Z,14.78
2022-10-24T02:20:54.477Z,14.77
2022-10-24T02:23:27.602Z,14.80
2022-10-24T02:26:00.029Z,14.76
2022-10-24T02:28:34.799Z,14.73
2022-10-24T02:31:09.664Z,14.70
2022-10-24T02:33:40.722Z,14.75
2022-10-24T02:36:11.417Z,14.74
2022-10-24T02:38:42.767Z,14.72
2022-10-24T02:41:15.781Z,14.76
2022-10-24T02:43:45.343Z,14.75
2022-10-24T02:46:15.422Z,14.75
2022-10-24T02:48:48.378Z,14.70
2022-10-24T02:51:18.304Z,14.70
2022-10-24T02:53:46.028Z,14.69
2022-10-24T02:56:13.871Z,14.70
2022-10-24T02:58:41.623Z,14.72
2022-10-24T03:01:09.724Z,14.72
2022-10-24T03:03:38.820Z,14.71
2022-10-24T03:06:06.871Z,14.68
2022-10-24T03:08:34.655Z,14.71
2022-10-24T03:11:02.317Z,14.71
2022-10-24T03:13:29.987Z,14.73
2022-10-24T03:15:57.689Z,14.71
2022-10-24T03:18:25.501Z,14.75
2022-10-24T03:20:54.501Z,14.76
2022-10-24T03:23:22.587Z,14.78
2022-10-24T03:25:50.204Z,14.77
2022-10-24T03:28:17.822Z,14.77
2022-10-24T03:30:45.462Z,14.78
2022-10-24T03:33:13.135Z,14.81
2022-10-24T03:35:40.760Z,14.81
2022-10-24T03:38:09.800Z,14.85
2022-10-24T03:40:38.629Z,14.80
2022-10-24T03:43:06.389Z,14.78
2022-10-24T03:45:33.980Z,14.77
2022-10-24T03:48:01.675Z,14.78
2022-10-24T03:50:29.303Z,14.79
2022-10-24T03:52:56.981Z,14.79
2022-10-24T03:55:26.489Z,14.72
2022-10-24T03:57:54.499Z,14.71
2022-10-24T04:00:22.803Z,14.73
2022-10-24T04:02:51.313Z,14.70
2022-10-24T04:05:19.057Z,14.72
2022-10-24T04:07:47.054Z,14.71
2022-10-24T04:10:14.992Z,14.71
2022-10-24T04:12:44.076Z,14.69
2022-10-24T04:15:12.293Z,14.64
2022-10-24T04:17:40.051Z,14.71
2022-10-24T04:20:08.723Z,14.74
2022-10-24T04:22:36.436Z,14.79
2022-10-24T04:25:04.598Z,14.80
2022-10-24T04:27:32.262Z,14.82
2022-10-24T04:30:01.281Z,14.82
2022-10-24T04:32:28.923Z,14.83
2022-10-24T04:34:56.567Z,14.85
2022-10-24T04:37:24.185Z,14.85
2022-10-24T04:39:53.682Z,14.82
2022-10-24T04:42:21.377Z,14.81
2022-10-24T04:44:49.011Z,14.79
2022-10-24T04:49:51.223Z,14.73
2022-10-24T04:52:18.886Z,14.77
2022-10-24T04:54:46.527Z,14.74
2022-10-24T04:57:14.170Z,14.75
2022-10-24T04:59:41.849Z,14.80
2022-10-24T05:02:09.552Z,14.78
2022-10-24T05:04:38.652Z,14.75
2022-10-24T05:07:06.387Z,14.77
2022-10-24T05:09:34.399Z,14.77
2022-10-24T05:12:02.135Z,14.81
2022-10-24T05:14:29.966Z,14.83
2022-10-24T05:16:57.611Z,14.83
2022-10-24T05:19:25.341Z,14.85
2022-10-24T05:21:54.330Z,14.82
2022-10-24T05:24:21.997Z,14.82
2022-10-24T05:26:49.590Z,14.85
2022-10-24T05:29:17.238Z,14.86
2022-10-24T05:31:44.849Z,14.87
2022-10-24T05:34:12.509Z,14.90
2022-10-24T05:36:40.164Z,14.88
2022-10-24T05:39:09.214Z,14.88
2022-10-24T05:41:36.894Z,14.89
2022-10-24T05:44:05.167Z,14.90
2022-10-24T05:46:32.943Z,14.93
2022-10-24T05:49:00.768Z,14.93
2022-10-24T05:51:28.520Z,14.94
2022-10-24T05:53:56.190Z,14.93
2022-10-24T05:56:25.223Z,14.94
2022-10-24T05:58:52.877Z,14.92
2022-10-24T06:01:20.596Z,14.93
2022-10-24T06:03:48.330Z,14.96
2022-10-24T06:06:15.990Z,14.96
2022-10-24T06:08:43.679Z,14.94
2022-10-24T06:11:11.977Z,14.97
2022-10-24T06:13:41.411Z,14.96
2022-10-24T06:16:10.499Z,14.99
2022-10-24T06:18:40.777Z,14.99
2022-10-24T06:21:10.125Z,15.01
2022-10-24T06:23:37.980Z,15.03
2022-10-24T06:26:09.930Z,15.00
2022-10-24T06:28:38.143Z,15.05
2022-10-24T06:31:08.383Z,15.06
2022-10-24T06:33:36.559Z,15.07
2022-10-24T06:36:07.748Z,15.08
2022-10-24T06:38:35.674Z,15.09
2022-10-24T06:41:07.356Z,15.09
2022-10-24T06:43:35.712Z,15.12
2022-10-24T06:46:08.176Z,15.15
2022-10-24T06:48:36.959Z,15.16
2022-10-24T06:51:05.183Z,15.14
2022-10-24T06:53:33.434Z,15.17
2022-10-24T06:56:02.685Z,15.18
2022-10-24T06:58:32.682Z,15.19
2022-10-24T07:01:01.167Z,15.23
2022-10-24T07:03:30.480Z,15.25
2022-10-24T07:05:58.129Z,15.26
2022-10-24T07:08:25.834Z,15.30
2022-10-24T07:10:53.636Z,15.33
2022-10-24T07:13:21.322Z,15.37
2022-10-24T07:15:49.253Z,15.40
2022-10-24T07:18:17.569Z,15.44
2022-10-24T07:20:47.008Z,15.53
2022-10-24T07:23:15.327Z,15.57
2022-10-24T07:25:43.728Z,15.58
2022-10-24T07:28:12.353Z,15.62
2022-10-24T07:30:40.624Z,15.65
2022-10-24T07:33:08.524Z,15.70
2022-10-24T07:35:36.513Z,15.72
2022-10-24T07:38:05.903Z,15.78
2022-10-24T07:40:34.014Z,15.82
2022-10-24T07:43:01.968Z,15.87
2022-10-24T07:45:32.359Z,15.89
2022-10-24T07:48:00.823Z,15.94
2022-10-24T07:50:28.639Z,15.99
2022-10-24T07:52:56.692Z,16.05
2022-10-24T07:55:25.799Z,16.05
2022-10-24T07:57:54.063Z,16.11
2022-10-24T08:00:22.556Z,16.10
2022-10-24T08:05:23.157Z,16.20
2022-10-24T08:07:56.023Z,16.23
2022-10-24T08:10:29.562Z,16.25
2022-10-24T08:12:57.249Z,16.26
2022-10-24T08:15:27.616Z,16.35
2022-10-24T08:17:55.497Z,16.42
2022-10-24T08:20:26.143Z,16.52
2022-10-24T08:22:53.858Z,16.60
2022-10-24T08:25:22.169Z,16.71
2022-10-24T08:27:51.161Z,16.74
2022-10-24T08:30:20.299Z,16.82
2022-10-24T08:32:48.091Z,16.89
2022-10-24T08:35:17.600Z,16.97
2022-10-24T08:37:45.439Z,16.98
2022-10-24T08:40:16.710Z,17.07
2022-10-24T08:42:45.128Z,17.12
2022-10-24T08:45:20.164Z,17.19
2022-10-24T08:47:54.444Z,17.23
2022-10-24T08:50:25.167Z,17.25
2022-10-24T08:52:59.209Z,17.30
2022-10-24T08:55:48.315Z,17.34
2022-10-24T08:58:20.882Z,17.36
2022-10-24T09:00:53.355Z,17.44
2022-10-24T09:03:37.144Z,17.43
2022-10-24T09:06:17.214Z,17.48
2022-10-24T09:08:52.251Z,17.46
2022-10-24T09:11:27.090Z,17.45
2022-10-24T09:13:55.149Z,17.45
2022-10-24T09:16:25.390Z,17.43
2022-10-24T09:18:56.251Z,17.42
2022-10-24T09:21:24.772Z,17.41
2022-10-24T09:23:53.634Z,17.44
2022-10-24T09:26:27.432Z,17.42
2022-10-24T09:28:56.965Z,17.43
2022-10-24T09:31:28.044Z,17.46
2022-10-24T09:33:56.531Z,17.48
2022-10-24T09:36:25.322Z,17.51
2022-10-24T09:38:53.340Z,17.57
2022-10-24T09:41:24.378Z,17.59
2022-10-24T09:43:55.976Z,17.61
2022-10-24T09:46:28.309Z,17.63
2022-10-24T09:48:58.565Z,17.70
2022-10-24T09:51:36.178Z,17.74
2022-10-24T09:54:23.854Z,17.76
2022-10-24T09:56:57.144Z,17.78
2022-10-24T09:59:33.547Z,17.76
2022-10-24T10:02:20.200Z,17.76
2022-10-24T10:04:49.543Z,17.84
2022-10-24T10:07:20.161Z,17.90
2022-10-24T10:09:55.625Z,17.95
2022-10-24T10:12:32.408Z,17.97
2022-10-24T10:15:02.460Z,17.97
2022-10-24T10:17:32.890Z,17.92
2022-10-24T10:20:00.673Z,17.93
2022-10-24T10:22:31.687Z,17.95
2022-10-24T10:25:00.662Z,17.97
2022-10-24T10:27:34.267Z,18.05
2022-10-24T10:30:20.747Z,18.02
2022-10-24T10:33:01.830Z,18.02
2022-10-24T10:35:38.867Z,18.02
2022-10-24T10:38:20.597Z,17.99
2022-10-24T10:40:53.563Z,17.94
2022-10-24T10:43:31.269Z,17.96
2022-10-24T10:46:14.455Z,17.99
2022-10-24T10:48:56.265Z,18.01
2022-10-24T10:51:31.452Z,18.03
2022-10-24T10:54:07.708Z,18.04
2022-10-24T10:56:43.858Z,18.02
2022-10-24T10:59:29.386Z,18.01
2022-10-24T11:02:03.931Z,17.98
2022-10-24T11:04:40.812Z,18.01
2022-10-24T11:07:17.537Z,18.07
2022-10-24T11:09:48.937Z,18.09
2022-10-24T11:12:21.911Z,18.14
2022-10-24T11:14:56.142Z,18.20
2022-10-24T11:17:28.719Z,18.19
2022-10-24T11:20:06.163Z,18.18
2022-10-24T11:22:41.266Z,18.18
2022-10-24T11:25:21.586Z,18.18
2022-10-24T11:27:54.254Z,18.16
2022-10-24T11:30:23.018Z,18.19
2022-10-24T11:32:55.648Z,18.16
2022-10-24T11:35:30.200Z,18.18
2022-10-24T11:38:02.853Z,18.15
2022-10-24T11:40:32.649Z,18.14
2022-10-24T11:43:14.813Z,18.09
2022-10-24T11:45:50.149Z,18.11
2022-10-24T11:48:23.167Z,18.08
2022-10-24T11:51:02.999Z,18.10
2022-10-24T11:53:56.578Z,18.11
2022-10-24T11:56:33.714Z,18.08
2022-10-24T11:59:04.685Z,18.09
2022-10-24T12:02:17.578Z,18.13
2022-10-24T12:05:23.172Z,18.17
2022-10-24T12:08:23.180Z,18.15
2022-10-24T12:11:16.542Z,18.16
2022-10-24T12:14:19.120Z,18.12
2022-10-24T12:17:00.397Z,18.15
2022-10-24T12:19:29.284Z,18.19
2022-10-24T12:22:00.125Z,18.23
2022-10-24T12:24:32.899Z,18.42
2022-10-24T12:27:02.876Z,18.43
2022-10-24T12:29:33.554Z,18.40
2022-10-24T12:32:21.849Z,18.40
2022-10-24T12:35:25.172Z,18.38
2022-10-24T12:37:49.046Z,18.39
2022-10-24T12:40:52.003Z,18.49
2022-10-24T12:43:32.560Z,18.39
2022-10-24T12:46:01.947Z,18.31
2022-10-24T12:48:37.208Z,18.34
2022-10-24T12:51:25.923Z,18.35
2022-10-24T12:54:06.399Z,18.37
2022-10-24T12:56:35.835Z,18.37
2022-10-24T12:59:17.023Z,18.37
2022-10-24T13:01:45.767Z,18.42
2022-10-24T13:04:55.249Z,18.42
2022-10-24T13:07:36.125Z,18.36
2022-10-24T13:10:20.302Z,18.33
2022-10-24T13:13:05.986Z,18.30
2022-10-24T13:15:44.925Z,18.29
2022-10-24T13:18:28.107Z,18.28
2022-10-24T13:21:15.201Z,18.25
2022-10-24T13:23:44.607Z,18.20
2022-10-24T13:26:37.914Z,18.23
2022-10-24T13:29:14.096Z,18.22
2022-10-24T13:31:50.726Z,18.18
2022-10-24T13:34:22.909Z,18.16
2022-10-24T13:36:54.538Z,18.08
2022-10-24T13:39:27.885Z,18.07
2022-10-24T13:42:00.481Z,18.02
2022-10-24T13:44:34.450Z,18.03
2022-10-24T13:47:14.639Z,18.01
2022-10-24T13:49:50.530Z,17.96
2022-10-24T13:52:23.529Z,17.95
2022-10-24T13:54:57.504Z,17.90
2022-10-24T13:57:31.161Z,17.88
2022-10-24T14:00:01.710Z,17.91
2022-10-24T14:02:33.700Z,17.93
2022-10-24T14:05:03.618Z,17.95
2022-10-24T14:07:33.605Z,18.00
2022-10-24T14:10:09.209Z,18.03
2022-10-24T14:12:40.209Z,18.06
2022-10-24T14:15:18.363Z,18.07
2022-10-24T14:17:55.526Z,18.07
2022-10-24T14:20:25.170Z,18.07
2022-10-24T14:22:53.180Z,18.02
2022-10-24T14:25:26.762Z,18.02
2022-10-24T14:27:56.638Z,18.04
2022-10-24T14:30:32.087Z,18.03
2022-10-24T14:33:07.627Z,17.97
2022-10-24T14:35:35.819Z,17.97
2022-10-24T14:38:07.465Z,17.97
2022-10-24T14:40:37.735Z,17.92
2022-10-24T14:43:05.820Z,17.92
2022-10-24T14:45:34.872Z,17.92
2022-10-24T14:48:03.331Z,17.89
2022-10-24T14:50:36.054Z,17.86
2022-10-24T14:53:04.299Z,17.86
2022-10-24T14:55:32.846Z,17.87
2022-10-24T14:58:00.548Z,17.86
2022-10-24T15:00:40.898Z,17.81
2022-10-24T15:03:11.491Z,17.75
2022-10-24T15:05:40.707Z,17.74
2022-10-24T15:08:28.230Z,17.71
2022-10-24T15:11:15.730Z,17.75
2022-10-24T15:14:00.028Z,17.73
2022-10-24T15:16:37.528Z,17.71
2022-10-24T15:19:13.554Z,17.68
2022-10-24T15:21:47.209Z,17.70
2022-10-24T15:24:22.938Z,17.67
2022-10-24T15:26:51.220Z,17.64
2022-10-24T15:29:21.497Z,17.62
2022-10-24T15:31:51.792Z,17.62
2022-10-24T15:34:22.821Z,17.57
2022-10-24T15:36:53.192Z,17.53
2022-10-24T15:39:24.240Z,17.50
2022-10-24T15:41:52.330Z,17.47
2022-10-24T15:44:22.177Z,17.44
2022-10-24T15:46:50.457Z,17.39
2022-10-24T15:49:18.351Z,17.40
2022-10-24T15:51:50.360Z,17.43
2022-10-24T15:54:20.727Z,17.44
2022-10-24T15:56:48.794Z,17.40
2022-10-24T15:59:17.543Z,17.32
2022-10-24T16:01:48.960Z,17.24
2022-10-24T16:04:17.777Z,17.22
2022-10-24T16:06:46.841Z,17.24
2022-10-24T16:09:16.460Z,17.20
2022-10-24T16:11:44.211Z,17.10
2022-10-24T16:14:15.078Z,17.02
2022-10-24T16:16:43.158Z,16.93
2022-10-24T16:19:11.493Z,16.89
2022-10-24T16:21:40.807Z,16.90
2022-10-24T16:24:12.440Z,16.85
2022-10-24T16:26:40.946Z,16.81
2022-10-24T16:29:08.840Z,16.78
2022-10-24T16:31:36.762Z,16.70
2022-10-24T16:34:07.205Z,16.72
2022-10-24T16:36:34.908Z,16.63
2022-10-24T16:39:02.729Z,16.71
2022-10-24T16:41:31.698Z,16.69
2022-10-24T16:43:59.830Z,16.69
2022-10-24T16:46:28.829Z,16.63
2022-10-24T16:48:56.780Z,16.65
2022-10-24T16:51:31.717Z,16.69
2022-10-24T16:53:59.673Z,16.69
2022-10-24T16:56:27.773Z,16.61
2022-10-24T16:58:56.968Z,16.60
2022-10-24T17:01:27.404Z,16.64
2022-10-24T17:03:55.299Z,16.75
2022-10-24T17:06:23.080Z,16.71
2022-10-24T17:08:51.405Z,16.63
2022-10-24T17:11:44.270Z,16.69
2022-10-24T17:16:41.970Z,16.60
2022-10-24T17:19:17.760Z,16.61
2022-10-24T17:21:47.842Z,16.53
2022-10-24T17:24:18.530Z,16.42
2022-10-24T17:26:46.555Z,16.41
2022-10-24T17:29:23.065Z,16.38
2022-10-24T17:31:50.920Z,16.32
2022-10-24T17:34:18.987Z,16.25
2022-10-24T17:36:50.739Z,16.24
2022-10-24T17:39:26.426Z,16.36
2022-10-24T17:41:54.669Z,16.46
2022-10-24T17:44:24.379Z,16.51
2022-10-24T17:46:55.896Z,16.57
2022-10-24T17:49:26.324Z,16.48
2022-10-24T17:51:54.000Z,16.39
2022-10-24T17:54:21.653Z,16.35
2022-10-24T17:56:49.322Z,16.30
2022-10-24T17:59:17.031Z,16.27
2022-10-24T18:01:46.189Z,16.24
2022-10-24T18:04:14.162Z,16.20
2022-10-24T18:06:43.376Z,16.16
2022-10-24T18:09:12.015Z,16.12
2022-10-24T18:11:39.853Z,16.11
2022-10-24T18:14:07.741Z,16.11
2022-10-24T18:16:36.999Z,16.07
2022-10-24T18:19:06.890Z,16.06
2022-10-24T18:21:34.602Z,16.10
2022-10-24T18:24:02.371Z,16.06
2022-10-24T18:26:30.025Z,16.07
2022-10-24T18:28:57.996Z,16.05
2022-10-24T18:31:27.829Z,16.03
2022-10-24T18:37:24.365Z,16.04
2022-10-24T18:40:03.966Z,16.06
2022-10-24T18:42:53.148Z,16.00
2022-10-24T18:46:02.686Z,15.99
2022-10-24T19:08:27.030Z,16.16
2022-10-24T19:11:41.314Z,16.05
2022-10-24T19:18:11.153Z,15.94
2022-10-24T19:24:51.066Z,15.90
2022-10-24T19:27:49.699Z,15.92
2022-10-24T19:30:55.637Z,15.92
2022-10-24T19:33:35.255Z,15.88
2022-10-24T19:39:42.583Z,15.80
2022-10-24T19:42:25.905Z,15.74
2022-10-24T19:45:50.126Z,15.76
2022-10-24T19:56:46.590Z,15.79
2022-10-24T20:04:02.048Z,15.71
2022-10-24T20:07:04.283Z,15.73
2022-10-24T20:10:05.169Z,15.75
2022-10-24T20:12:42.091Z,15.78
2022-10-24T20:15:34.340Z,15.81
2022-10-24T20:21:31.185Z,15.84
2022-10-24T20:25:18.965Z,15.80
2022-10-24T20:48:23.381Z,15.39
2022-10-24T21:41:45.019Z,15.40
2022-10-24T21:44:14.455Z,15.39
2022-10-24T21:46:42.678Z,15.37
2022-10-24T21:49:11.945Z,15.33
2022-10-24T21:51:41.345Z,15.29
2022-10-24T21:54:16.784Z,15.28
2022-10-24T21:56:46.483Z,15.27
2022-10-24T21:59:16.665Z,15.25
2022-10-24T22:01:46.841Z,15.25
2022-10-24T22:04:16.437Z,15.19
2022-10-24T22:06:45.781Z,15.21
2022-10-24T22:09:16.263Z,15.21
2022-10-24T22:11:46.829Z,15.23
2022-10-24T22:14:17.021Z,15.24
2022-10-24T22:16:45.578Z,15.20
2022-10-24T22:19:14.646Z,15.18
2022-10-24T22:21:45.756Z,15.14
2022-10-24T22:24:15.924Z,15.19
2022-10-24T22:26:43.994Z,15.22
2022-10-24T22:29:15.922Z,15.24
2022-10-24T22:31:44.469Z,15.28
2022-10-24T22:34:17.251Z,15.17
2022-10-24T22:37:00.786Z,15.16
2022-10-24T22:39:29.084Z,15.06
2022-10-24T22:41:57.319Z,15.07
2022-10-24T22:44:27.157Z,15.06
2022-10-24T22:47:06.549Z,14.98
2022-10-24T22:49:45.130Z,14.91
2022-10-24T22:52:13.727Z,14.89
2022-10-24T22:54:42.086Z,14.92
2022-10-24T22:57:10.532Z,14.94
2022-10-24T22:59:40.149Z,14.97
2022-10-24T23:02:23.347Z,14.96
2022-10-24T23:05:00.407Z,14.98
2022-10-24T23:07:35.777Z,14.97
2022-10-24T23:10:03.615Z,15.02
2022-10-24T23:12:31.847Z,14.98
2022-10-24T23:15:01.366Z,14.94
2022-10-24T23:17:32.747Z,14.98
2022-10-24T23:20:01.324Z,14.96
2022-10-24T23:22:30.712Z,14.98
2022-10-24T23:25:00.393Z,14.99
2022-10-24T23:27:34.306Z,15.01
2022-10-24T23:30:06.807Z,14.98
2022-10-24T23:32:38.903Z,14.99
2022-10-24T23:35:08.588Z,14.99
2022-10-24T23:37:38.261Z,15.03
2022-10-24T23:40:22.342Z,15.06
2022-10-24T23:42:51.414Z,14.99
2022-10-24T23:45:23.306Z,14.98
2022-10-24T23:48:06.090Z,14.92
2022-10-24T23:50:38.917Z,14.93
2022-10-24T23:53:20.636Z,14.86
2022-10-24T23:55:49.589Z,14.79
2022-10-24T23:58:18.990Z,14.78
